sensor_id;sensor_type;location;lat;lon;timestamp;temperature;humidity
35523;DHT22;61478;50.820;4.330;2023-04-15T00:00:06;11.70;99.90
35523;DHT22;61478;50.820;4.330;2023-04-15T00:02:32;11.90;99.90
35523;DHT22;61478;50.820;4.330;2023-04-15T00:04:58;11.90;99.90
35523;DHT22;61478;50.820;4.330;2023-04-15T00:07:24;12.00;99.90
35523;DHT22;61478;50.820;4.330;2023-04-15T00:09:50;12.20;99.90
35523;DHT22;61478;50.820;4.330;2023-04-15T00:12:19;12.20;99.90
35523;DHT22;61478;50.820;4.330;2023-04-15T00:14:46;11.90;99.90
35523;DHT22;61478;50.820;4.330;2023-04-15T00:17:12;11.80;99.90
35523;DHT22;61478;50.820;4.330;2023-04-15T00:19:38;11.60;99.90
35523;DHT22;61478;50.820;4.330;2023-04-15T00:22:05;11.30;99.90
35523;DHT22;61478;50.820;4.330;2023-04-15T00:24:31;11.30;99.90
35523;DHT22;61478;50.820;4.330;2023-04-15T00:26:57;11.20;99.90
35523;DHT22;61478;50.820;4.330;2023-04-15T00:29:23;11.10;99.90
35523;DHT22;61478;50.820;4.330;2023-04-15T00:31:49;11.30;99.90
35523;DHT22;61478;50.820;4.330;2023-04-15T00:34:15;11.50;99.90
35523;DHT22;61478;50.820;4.330;2023-04-15T00:36:41;11.80;99.90
35523;DHT22;61478;50.820;4.330;2023-04-15T00:39:07;11.50;99.90
35523;DHT22;61478;50.820;4.330;2023-04-15T00:41:32;11.50;99.90
35523;DHT22;61478;50.820;4.330;2023-04-15T00:43:59;11.70;99.90
35523;DHT22;61478;50.820;4.330;2023-04-15T00:46:28;11.90;99.90
35523;DHT22;61478;50.820;4.330;2023-04-15T00:48:55;12.10;99.90
35523;DHT22;61478;50.820;4.330;2023-04-15T00:51:21;12.30;99.90
35523;DHT22;61478;50.820;4.330;2023-04-15T00:53:47;12.40;99.90
35523;DHT22;61478;50.820;4.330;2023-04-15T00:56:13;12.50;99.90
35523;DHT22;61478;50.820;4.330;2023-04-15T00:58:39;12.50;99.90
35523;DHT22;61478;50.820;4.330;2023-04-15T01:01:05;12.50;99.90
35523;DHT22;61478;50.820;4.330;2023-04-15T01:03:31;12.60;99.90
35523;DHT22;61478;50.820;4.330;2023-04-15T01:05:57;12.60;99.90
35523;DHT22;61478;50.820;4.330;2023-04-15T01:08:29;11.90;99.90
35523;DHT22;61478;50.820;4.330;2023-04-15T01:10:57;11.50;99.90
35523;DHT22;61478;50.820;4.330;2023-04-15T01:13:23;11.50;99.90
35523;DHT22;61478;50.820;4.330;2023-04-15T01:15:50;11.80;99.90
35523;DHT22;61478;50.820;4.330;2023-04-15T01:18:17;12.10;99.90
35523;DHT22;61478;50.820;4.330;2023-04-15T01:20:43;12.20;99.90
35523;DHT22;61478;50.820;4.330;2023-04-15T01:23:09;12.10;99.90
35523;DHT22;61478;50.820;4.330;2023-04-15T01:25:35;12.00;99.90
35523;DHT22;61478;50.820;4.330;2023-04-15T01:28:02;11.60;99.90
35523;DHT22;61478;50.820;4.330;2023-04-15T01:30:28;11.30;99.90
35523;DHT22;61478;50.820;4.330;2023-04-15T01:32:53;11.30;99.90
35523;DHT22;61478;50.820;4.330;2023-04-15T01:35:19;11.50;99.90
35523;DHT22;61478;50.820;4.330;2023-04-15T01:37:46;11.70;99.90
35523;DHT22;61478;50.820;4.330;2023-04-15T01:40:12;12.00;99.90
35523;DHT22;61478;50.820;4.330;2023-04-15T01:42:38;11.80;99.90
35523;DHT22;61478;50.820;4.330;2023-04-15T01:45:04;11.30;99.90
35523;DHT22;61478;50.820;4.330;2023-04-15T01:47:31;11.10;99.90
35523;DHT22;61478;50.820;4.330;2023-04-15T01:49:58;11.10;99.90
35523;DHT22;61478;50.820;4.330;2023-04-15T01:52:23;11.30;99.90
35523;DHT22;61478;50.820;4.330;2023-04-15T01:54:50;11.50;99.90
35523;DHT22;61478;50.820;4.330;2023-04-15T01:57:15;11.30;99.90
35523;DHT22;61478;50.820;4.330;2023-04-15T01:59:41;11.10;99.90
35523;DHT22;61478;50.820;4.330;2023-04-15T02:02:07;10.80;99.90
35523;DHT22;61478;50.820;4.330;2023-04-15T02:04:33;10.80;99.90
35523;DHT22;61478;50.820;4.330;2023-04-15T02:06:59;11.10;99.90
35523;DHT22;61478;50.820;4.330;2023-04-15T02:09:25;11.40;99.90
35523;DHT22;61478;50.820;4.330;2023-04-15T02:11:51;11.70;99.90
35523;DHT22;61478;50.820;4.330;2023-04-15T02:14:18;11.90;99.90
35523;DHT22;61478;50.820;4.330;2023-04-15T02:16:44;12.10;99.90
35523;DHT22;61478;50.820;4.330;2023-04-15T02:19:10;12.10;99.90
35523;DHT22;61478;50.820;4.330;2023-04-15T02:21:37;12.10;99.90
35523;DHT22;61478;50.820;4.330;2023-04-15T02:24:03;11.90;99.90
35523;DHT22;61478;50.820;4.330;2023-04-15T02:26:28;11.70;99.90
35523;DHT22;61478;50.820;4.330;2023-04-15T02:28:57;11.60;99.90
35523;DHT22;61478;50.820;4.330;2023-04-15T02:31:23;11.40;99.90
35523;DHT22;61478;50.820;4.330;2023-04-15T02:33:49;11.40;99.90
35523;DHT22;61478;50.820;4.330;2023-04-15T02:36:14;11.50;99.90
35523;DHT22;61478;50.820;4.330;2023-04-15T02:38:40;11.60;99.90
35523;DHT22;61478;50.820;4.330;2023-04-15T02:41:09;11.60;99.90
35523;DHT22;61478;50.820;4.330;2023-04-15T02:43:35;11.70;99.90
35523;DHT22;61478;50.820;4.330;2023-04-15T02:46:01;11.60;99.90
35523;DHT22;61478;50.820;4.330;2023-04-15T02:48:26;11.40;99.90
35523;DHT22;61478;50.820;4.330;2023-04-15T02:50:52;11.40;99.90
35523;DHT22;61478;50.820;4.330;2023-04-15T02:53:18;11.40;99.90
35523;DHT22;61478;50.820;4.330;2023-04-15T02:55:44;11.60;99.90
35523;DHT22;61478;50.820;4.330;2023-04-15T02:58:10;11.80;99.90
35523;DHT22;61478;50.820;4.330;2023-04-15T03:00:36;11.80;99.90
35523;DHT22;61478;50.820;4.330;2023-04-15T03:03:03;11.90;99.90
35523;DHT22;61478;50.820;4.330;2023-04-15T03:05:30;11.80;99.90
35523;DHT22;61478;50.820;4.330;2023-04-15T03:07:56;11.70;99.90
35523;DHT22;61478;50.820;4.330;2023-04-15T03:10:22;11.40;99.90
35523;DHT22;61478;50.820;4.330;2023-04-15T03:12:47;11.50;99.90
35523;DHT22;61478;50.820;4.330;2023-04-15T03:15:14;11.70;99.90
35523;DHT22;61478;50.820;4.330;2023-04-15T03:17:40;11.80;99.90
35523;DHT22;61478;50.820;4.330;2023-04-15T03:20:06;11.90;99.90
35523;DHT22;61478;50.820;4.330;2023-04-15T03:22:32;12.10;99.90
35523;DHT22;61478;50.820;4.330;2023-04-15T03:24:58;12.20;99.90
35523;DHT22;61478;50.820;4.330;2023-04-15T03:27:24;12.20;99.90
35523;DHT22;61478;50.820;4.330;2023-04-15T03:29:50;12.20;99.90
35523;DHT22;61478;50.820;4.330;2023-04-15T03:32:16;12.30;99.90
35523;DHT22;61478;50.820;4.330;2023-04-15T03:34:42;12.40;99.90
35523;DHT22;61478;50.820;4.330;2023-04-15T03:37:08;12.30;99.90
35523;DHT22;61478;50.820;4.330;2023-04-15T03:39:34;12.20;99.90
35523;DHT22;61478;50.820;4.330;2023-04-15T03:42:00;12.10;99.90
35523;DHT22;61478;50.820;4.330;2023-04-15T03:44:29;12.10;99.90
35523;DHT22;61478;50.820;4.330;2023-04-15T03:46:55;12.20;99.90
35523;DHT22;61478;50.820;4.330;2023-04-15T03:49:21;12.20;99.90
35523;DHT22;61478;50.820;4.330;2023-04-15T03:51:47;12.20;99.90
35523;DHT22;61478;50.820;4.330;2023-04-15T03:54:13;12.30;99.90
35523;DHT22;61478;50.820;4.330;2023-04-15T03:56:40;12.40;99.90
35523;DHT22;61478;50.820;4.330;2023-04-15T03:59:05;12.40;99.90
35523;DHT22;61478;50.820;4.330;2023-04-15T04:01:31;12.20;99.90
35523;DHT22;61478;50.820;4.330;2023-04-15T04:03:57;12.10;99.90
35523;DHT22;61478;50.820;4.330;2023-04-15T04:06:23;12.00;99.90
35523;DHT22;61478;50.820;4.330;2023-04-15T04:08:49;11.90;99.90
35523;DHT22;61478;50.820;4.330;2023-04-15T04:11:14;11.80;99.90
35523;DHT22;61478;50.820;4.330;2023-04-15T04:13:40;11.80;99.90
35523;DHT22;61478;50.820;4.330;2023-04-15T04:16:06;11.80;99.90
35523;DHT22;61478;50.820;4.330;2023-04-15T04:18:32;11.90;99.90
35523;DHT22;61478;50.820;4.330;2023-04-15T04:20:58;12.00;99.90
35523;DHT22;61478;50.820;4.330;2023-04-15T04:23:25;12.00;99.90
35523;DHT22;61478;50.820;4.330;2023-04-15T04:25:51;12.00;99.90
35523;DHT22;61478;50.820;4.330;2023-04-15T04:28:17;12.00;99.90
35523;DHT22;61478;50.820;4.330;2023-04-15T04:30:43;12.10;99.90
35523;DHT22;61478;50.820;4.330;2023-04-15T04:33:09;12.10;99.90
35523;DHT22;61478;50.820;4.330;2023-04-15T04:35:36;12.20;99.90
35523;DHT22;61478;50.820;4.330;2023-04-15T04:38:03;12.20;99.90
35523;DHT22;61478;50.820;4.330;2023-04-15T04:40:29;12.30;99.90
35523;DHT22;61478;50.820;4.330;2023-04-15T04:42:56;12.20;99.90
35523;DHT22;61478;50.820;4.330;2023-04-15T04:45:22;12.20;99.90
35523;DHT22;61478;50.820;4.330;2023-04-15T04:47:48;12.00;99.90
35523;DHT22;61478;50.820;4.330;2023-04-15T04:50:13;11.90;99.90
35523;DHT22;61478;50.820;4.330;2023-04-15T04:52:39;12.00;99.90
35523;DHT22;61478;50.820;4.330;2023-04-15T04:55:05;12.00;99.90
35523;DHT22;61478;50.820;4.330;2023-04-15T04:57:33;11.90;99.90
35523;DHT22;61478;50.820;4.330;2023-04-15T05:00:02;11.50;99.90
35523;DHT22;61478;50.820;4.330;2023-04-15T05:02:29;11.00;99.90
35523;DHT22;61478;50.820;4.330;2023-04-15T05:04:56;11.20;99.90
35523;DHT22;61478;50.820;4.330;2023-04-15T05:07:22;11.20;99.90
35523;DHT22;61478;50.820;4.330;2023-04-15T05:09:48;11.40;99.90
35523;DHT22;61478;50.820;4.330;2023-04-15T05:12:14;11.40;99.90
35523;DHT22;61478;50.820;4.330;2023-04-15T05:14:40;11.10;99.90
35523;DHT22;61478;50.820;4.330;2023-04-15T05:17:07;11.00;99.90
35523;DHT22;61478;50.820;4.330;2023-04-15T05:19:33;11.20;99.90
35523;DHT22;61478;50.820;4.330;2023-04-15T05:21:59;11.50;99.90
35523;DHT22;61478;50.820;4.330;2023-04-15T05:24:25;11.70;99.90
35523;DHT22;61478;50.820;4.330;2023-04-15T05:26:51;11.50;99.90
35523;DHT22;61478;50.820;4.330;2023-04-15T05:29:17;11.50;99.90
35523;DHT22;61478;50.820;4.330;2023-04-15T05:31:43;11.60;99.90
35523;DHT22;61478;50.820;4.330;2023-04-15T05:34:09;11.50;99.90
35523;DHT22;61478;50.820;4.330;2023-04-15T05:36:36;11.60;99.90
35523;DHT22;61478;50.820;4.330;2023-04-15T05:39:02;11.50;99.90
35523;DHT22;61478;50.820;4.330;2023-04-15T05:41:28;11.30;99.90
35523;DHT22;61478;50.820;4.330;2023-04-15T05:43:54;11.00;99.90
35523;DHT22;61478;50.820;4.330;2023-04-15T05:46:21;11.00;99.90
35523;DHT22;61478;50.820;4.330;2023-04-15T05:48:47;11.20;99.90
35523;DHT22;61478;50.820;4.330;2023-04-15T05:51:13;11.30;99.90
35523;DHT22;61478;50.820;4.330;2023-04-15T05:53:38;11.30;99.90
35523;DHT22;61478;50.820;4.330;2023-04-15T05:56:06;11.40;99.90
35523;DHT22;61478;50.820;4.330;2023-04-15T05:58:32;11.60;99.90
35523;DHT22;61478;50.820;4.330;2023-04-15T06:00:58;11.70;99.90
35523;DHT22;61478;50.820;4.330;2023-04-15T06:03:24;11.80;99.90
35523;DHT22;61478;50.820;4.330;2023-04-15T06:05:50;11.70;99.90
35523;DHT22;61478;50.820;4.330;2023-04-15T06:08:15;11.70;99.90
35523;DHT22;61478;50.820;4.330;2023-04-15T06:10:41;11.90;99.90
35523;DHT22;61478;50.820;4.330;2023-04-15T06:13:07;12.00;99.90
35523;DHT22;61478;50.820;4.330;2023-04-15T06:15:33;12.00;99.90
35523;DHT22;61478;50.820;4.330;2023-04-15T06:17:59;12.00;99.90
35523;DHT22;61478;50.820;4.330;2023-04-15T06:20:25;12.00;99.90
35523;DHT22;61478;50.820;4.330;2023-04-15T06:22:51;12.00;99.90
35523;DHT22;61478;50.820;4.330;2023-04-15T06:25:17;12.00;99.90
35523;DHT22;61478;50.820;4.330;2023-04-15T06:27:42;12.00;99.90
35523;DHT22;61478;50.820;4.330;2023-04-15T06:30:08;12.10;99.90
35523;DHT22;61478;50.820;4.330;2023-04-15T06:32:34;12.10;99.90
35523;DHT22;61478;50.820;4.330;2023-04-15T06:35:00;12.20;99.90
35523;DHT22;61478;50.820;4.330;2023-04-15T06:37:26;12.20;99.90
35523;DHT22;61478;50.820;4.330;2023-04-15T06:39:52;12.30;99.90
35523;DHT22;61478;50.820;4.330;2023-04-15T06:42:17;12.30;99.90
35523;DHT22;61478;50.820;4.330;2023-04-15T06:44:43;12.40;99.90
35523;DHT22;61478;50.820;4.330;2023-04-15T06:47:09;12.50;99.90
35523;DHT22;61478;50.820;4.330;2023-04-15T06:49:37;12.30;99.90
35523;DHT22;61478;50.820;4.330;2023-04-15T06:52:04;12.20;99.90
35523;DHT22;61478;50.820;4.330;2023-04-15T06:54:30;12.20;99.90
35523;DHT22;61478;50.820;4.330;2023-04-15T06:56:56;12.30;99.90
35523;DHT22;61478;50.820;4.330;2023-04-15T06:59:22;12.40;99.90
35523;DHT22;61478;50.820;4.330;2023-04-15T07:01:48;12.50;99.90
35523;DHT22;61478;50.820;4.330;2023-04-15T07:04:14;12.50;99.90
35523;DHT22;61478;50.820;4.330;2023-04-15T07:06:40;12.60;99.90
35523;DHT22;61478;50.820;4.330;2023-04-15T07:09:06;12.60;99.90
35523;DHT22;61478;50.820;4.330;2023-04-15T07:11:33;12.70;99.90
35523;DHT22;61478;50.820;4.330;2023-04-15T07:13:58;12.80;99.90
35523;DHT22;61478;50.820;4.330;2023-04-15T07:16:24;12.90;99.90
35523;DHT22;61478;50.820;4.330;2023-04-15T07:18:50;12.90;99.90
35523;DHT22;61478;50.820;4.330;2023-04-15T07:21:16;13.00;99.90
35523;DHT22;61478;50.820;4.330;2023-04-15T07:23:42;13.10;99.90
35523;DHT22;61478;50.820;4.330;2023-04-15T07:26:08;13.20;99.90
35523;DHT22;61478;50.820;4.330;2023-04-15T07:28:35;13.30;99.90
35523;DHT22;61478;50.820;4.330;2023-04-15T07:31:01;13.30;99.90
35523;DHT22;61478;50.820;4.330;2023-04-15T07:33:27;13.40;99.90
35523;DHT22;61478;50.820;4.330;2023-04-15T07:35:52;13.40;99.90
35523;DHT22;61478;50.820;4.330;2023-04-15T07:38:18;13.50;99.90
35523;DHT22;61478;50.820;4.330;2023-04-15T07:40:45;13.50;99.90
35523;DHT22;61478;50.820;4.330;2023-04-15T07:43:11;13.40;99.90
35523;DHT22;61478;50.820;4.330;2023-04-15T07:45:38;13.30;99.90
35523;DHT22;61478;50.820;4.330;2023-04-15T07:48:04;13.30;99.90
35523;DHT22;61478;50.820;4.330;2023-04-15T07:50:31;13.30;99.90
35523;DHT22;61478;50.820;4.330;2023-04-15T07:52:57;13.20;99.90
35523;DHT22;61478;50.820;4.330;2023-04-15T07:55:23;13.30;99.90
35523;DHT22;61478;50.820;4.330;2023-04-15T07:57:49;13.40;99.90
35523;DHT22;61478;50.820;4.330;2023-04-15T08:00:15;13.30;99.90
35523;DHT22;61478;50.820;4.330;2023-04-15T08:02:44;13.20;99.90
35523;DHT22;61478;50.820;4.330;2023-04-15T08:05:13;13.10;99.90
35523;DHT22;61478;50.820;4.330;2023-04-15T08:07:39;13.10;99.90
35523;DHT22;61478;50.820;4.330;2023-04-15T08:10:05;13.10;99.90
35523;DHT22;61478;50.820;4.330;2023-04-15T08:12:32;13.40;99.90
35523;DHT22;61478;50.820;4.330;2023-04-15T08:14:57;13.50;99.90
35523;DHT22;61478;50.820;4.330;2023-04-15T08:17:24;13.70;99.90
35523;DHT22;61478;50.820;4.330;2023-04-15T08:19:50;14.00;99.90
35523;DHT22;61478;50.820;4.330;2023-04-15T08:22:16;14.20;99.90
35523;DHT22;61478;50.820;4.330;2023-04-15T08:24:42;14.40;99.90
35523;DHT22;61478;50.820;4.330;2023-04-15T08:27:08;14.40;99.90
35523;DHT22;61478;50.820;4.330;2023-04-15T08:29:34;14.40;99.90
35523;DHT22;61478;50.820;4.330;2023-04-15T08:32:00;14.50;99.90
35523;DHT22;61478;50.820;4.330;2023-04-15T08:34:28;14.60;99.90
35523;DHT22;61478;50.820;4.330;2023-04-15T08:36:55;14.70;99.90
35523;DHT22;61478;50.820;4.330;2023-04-15T08:39:21;14.70;99.90
35523;DHT22;61478;50.820;4.330;2023-04-15T08:41:59;14.60;99.90
35523;DHT22;61478;50.820;4.330;2023-04-15T08:44:29;14.70;99.90
35523;DHT22;61478;50.820;4.330;2023-04-15T08:47:00;14.70;99.90
35523;DHT22;61478;50.820;4.330;2023-04-15T08:49:26;14.70;99.90
35523;DHT22;61478;50.820;4.330;2023-04-15T08:51:54;14.70;99.90
35523;DHT22;61478;50.820;4.330;2023-04-15T08:54:21;14.70;99.90
35523;DHT22;61478;50.820;4.330;2023-04-15T08:56:47;14.80;99.90
35523;DHT22;61478;50.820;4.330;2023-04-15T08:59:14;14.80;99.90
35523;DHT22;61478;50.820;4.330;2023-04-15T09:01:41;15.00;99.90
35523;DHT22;61478;50.820;4.330;2023-04-15T09:04:07;15.00;99.90
35523;DHT22;61478;50.820;4.330;2023-04-15T09:06:33;15.00;99.90
35523;DHT22;61478;50.820;4.330;2023-04-15T09:08:59;15.30;99.90
35523;DHT22;61478;50.820;4.330;2023-04-15T09:11:25;15.50;99.90
35523;DHT22;61478;50.820;4.330;2023-04-15T09:13:51;15.70;99.90
35523;DHT22;61478;50.820;4.330;2023-04-15T09:16:17;15.90;99.90
35523;DHT22;61478;50.820;4.330;2023-04-15T09:18:43;16.10;99.90
35523;DHT22;61478;50.820;4.330;2023-04-15T09:21:11;16.10;99.90
35523;DHT22;61478;50.820;4.330;2023-04-15T09:23:41;16.30;99.90
35523;DHT22;61478;50.820;4.330;2023-04-15T09:26:18;16.70;99.90
35523;DHT22;61478;50.820;4.330;2023-04-15T09:28:43;17.30;99.90
35523;DHT22;61478;50.820;4.330;2023-04-15T09:31:09;18.20;99.90
35523;DHT22;61478;50.820;4.330;2023-04-15T09:33:35;19.00;99.90
35523;DHT22;61478;50.820;4.330;2023-04-15T09:36:18;19.70;99.90
35523;DHT22;61478;50.820;4.330;2023-04-15T09:38:55;20.10;99.90
35523;DHT22;61478;50.820;4.330;2023-04-15T09:41:22;20.50;99.90
35523;DHT22;61478;50.820;4.330;2023-04-15T09:43:48;21.10;97.80
35523;DHT22;61478;50.820;4.330;2023-04-15T09:46:13;21.40;93.50
35523;DHT22;61478;50.820;4.330;2023-04-15T09:48:39;21.60;89.20
35523;DHT22;61478;50.820;4.330;2023-04-15T09:51:05;21.90;87.60
35523;DHT22;61478;50.820;4.330;2023-04-15T09:53:34;22.00;86.80
35523;DHT22;61478;50.820;4.330;2023-04-15T09:56:01;22.50;86.40
35523;DHT22;61478;50.820;4.330;2023-04-15T09:58:29;23.00;84.50
35523;DHT22;61478;50.820;4.330;2023-04-15T10:00:56;22.70;81.30
35523;DHT22;61478;50.820;4.330;2023-04-15T10:03:27;22.80;82.40
35523;DHT22;61478;50.820;4.330;2023-04-15T10:05:55;23.20;81.70
35523;DHT22;61478;50.820;4.330;2023-04-15T10:08:29;22.90;78.90
35523;DHT22;61478;50.820;4.330;2023-04-15T10:10:56;22.90;79.60
35523;DHT22;61478;50.820;4.330;2023-04-15T10:13:26;23.10;79.20
35523;DHT22;61478;50.820;4.330;2023-04-15T10:16:04;23.30;77.70
35523;DHT22;61478;50.820;4.330;2023-04-15T10:18:34;23.20;76.00
35523;DHT22;61478;50.820;4.330;2023-04-15T10:21:00;23.30;76.40
35523;DHT22;61478;50.820;4.330;2023-04-15T10:23:27;23.00;76.00
35523;DHT22;61478;50.820;4.330;2023-04-15T10:25:53;23.00;77.00
35523;DHT22;61478;50.820;4.330;2023-04-15T10:28:20;23.10;76.40
35523;DHT22;61478;50.820;4.330;2023-04-15T10:30:49;22.80;77.70
35523;DHT22;61478;50.820;4.330;2023-04-15T10:33:17;23.10;77.60
35523;DHT22;61478;50.820;4.330;2023-04-15T10:35:46;23.30;76.30
35523;DHT22;61478;50.820;4.330;2023-04-15T10:38:38;23.50;76.30
35523;DHT22;61478;50.820;4.330;2023-04-15T10:41:16;23.60;74.90
35523;DHT22;61478;50.820;4.330;2023-04-15T10:46:12;23.70;75.90
35523;DHT22;61478;50.820;4.330;2023-04-15T10:48:49;23.50;74.70
35523;DHT22;61478;50.820;4.330;2023-04-15T10:51:16;23.60;71.70
35523;DHT22;61478;50.820;4.330;2023-04-15T10:53:42;23.70;70.30
35523;DHT22;61478;50.820;4.330;2023-04-15T10:56:09;23.60;69.50
35523;DHT22;61478;50.820;4.330;2023-04-15T10:58:42;23.50;71.10
35523;DHT22;61478;50.820;4.330;2023-04-15T11:01:08;23.40;72.00
35523;DHT22;61478;50.820;4.330;2023-04-15T11:03:39;23.30;70.40
35523;DHT22;61478;50.820;4.330;2023-04-15T11:06:06;23.50;71.30
35523;DHT22;61478;50.820;4.330;2023-04-15T11:08:55;23.30;68.50
35523;DHT22;61478;50.820;4.330;2023-04-15T11:11:21;23.00;68.20
35523;DHT22;61478;50.820;4.330;2023-04-15T11:13:48;23.10;69.50
35523;DHT22;61478;50.820;4.330;2023-04-15T11:16:15;23.50;68.90
35523;DHT22;61478;50.820;4.330;2023-04-15T11:18:40;23.50;62.00
35523;DHT22;61478;50.820;4.330;2023-04-15T11:21:07;23.50;59.80
35523;DHT22;61478;50.820;4.330;2023-04-15T11:23:41;23.30;57.40
35523;DHT22;61478;50.820;4.330;2023-04-15T11:26:12;23.20;58.80
35523;DHT22;61478;50.820;4.330;2023-04-15T11:28:42;23.30;59.00
35523;DHT22;61478;50.820;4.330;2023-04-15T11:31:14;23.30;59.20
35523;DHT22;61478;50.820;4.330;2023-04-15T11:36:19;23.00;60.20
35523;DHT22;61478;50.820;4.330;2023-04-15T11:38:48;23.30;62.10
35523;DHT22;61478;50.820;4.330;2023-04-15T11:41:13;23.50;60.80
35523;DHT22;61478;50.820;4.330;2023-04-15T11:43:39;23.60;60.90
35523;DHT22;61478;50.820;4.330;2023-04-15T11:46:05;23.50;61.40
35523;DHT22;61478;50.820;4.330;2023-04-15T11:48:34;23.30;59.00
35523;DHT22;61478;50.820;4.330;2023-04-15T11:51:02;23.30;60.40
35523;DHT22;61478;50.820;4.330;2023-04-15T11:53:42;23.60;59.40
35523;DHT22;61478;50.820;4.330;2023-04-15T11:56:09;23.60;57.90
35523;DHT22;61478;50.820;4.330;2023-04-15T11:58:36;23.50;53.60
35523;DHT22;61478;50.820;4.330;2023-04-15T12:01:03;23.00;50.20
35523;DHT22;61478;50.820;4.330;2023-04-15T12:03:46;22.80;53.00
35523;DHT22;61478;50.820;4.330;2023-04-15T12:06:19;22.80;54.30
35523;DHT22;61478;50.820;4.330;2023-04-15T12:11:27;22.60;56.30
35523;DHT22;61478;50.820;4.330;2023-04-15T12:16:23;22.40;52.40
35523;DHT22;61478;50.820;4.330;2023-04-15T12:18:53;22.50;50.20
35523;DHT22;61478;50.820;4.330;2023-04-15T12:21:26;22.40;53.80
35523;DHT22;61478;50.820;4.330;2023-04-15T12:23:54;22.50;52.80
35523;DHT22;61478;50.820;4.330;2023-04-15T12:26:28;22.40;52.70
35523;DHT22;61478;50.820;4.330;2023-04-15T12:29:05;22.30;51.10
35523;DHT22;61478;50.820;4.330;2023-04-15T12:31:32;22.30;51.40
35523;DHT22;61478;50.820;4.330;2023-04-15T12:33:59;22.30;53.60
35523;DHT22;61478;50.820;4.330;2023-04-15T12:36:26;22.10;56.60
35523;DHT22;61478;50.820;4.330;2023-04-15T12:38:53;22.10;54.90
35523;DHT22;61478;50.820;4.330;2023-04-15T12:41:19;21.90;55.70
35523;DHT22;61478;50.820;4.330;2023-04-15T12:43:46;21.80;55.90
35523;DHT22;61478;50.820;4.330;2023-04-15T12:46:12;21.90;56.90
35523;DHT22;61478;50.820;4.330;2023-04-15T12:48:39;21.90;56.50
35523;DHT22;61478;50.820;4.330;2023-04-15T12:51:05;21.80;50.10
35523;DHT22;61478;50.820;4.330;2023-04-15T12:53:30;21.70;49.80
35523;DHT22;61478;50.820;4.330;2023-04-15T12:55:56;21.70;53.30
35523;DHT22;61478;50.820;4.330;2023-04-15T12:58:22;21.70;54.40
35523;DHT22;61478;50.820;4.330;2023-04-15T13:00:48;21.60;53.50
35523;DHT22;61478;50.820;4.330;2023-04-15T13:03:15;21.60;53.90
35523;DHT22;61478;50.820;4.330;2023-04-15T13:05:41;21.70;56.10
35523;DHT22;61478;50.820;4.330;2023-04-15T13:08:07;21.60;52.10
35523;DHT22;61478;50.820;4.330;2023-04-15T13:10:34;21.50;52.30
35523;DHT22;61478;50.820;4.330;2023-04-15T13:13:03;21.30;51.80
35523;DHT22;61478;50.820;4.330;2023-04-15T13:15:29;21.10;52.70
35523;DHT22;61478;50.820;4.330;2023-04-15T13:17:55;20.90;52.30
35523;DHT22;61478;50.820;4.330;2023-04-15T13:20:21;20.80;53.40
35523;DHT22;61478;50.820;4.330;2023-04-15T13:22:47;20.60;53.90
35523;DHT22;61478;50.820;4.330;2023-04-15T13:25:13;20.40;54.60
35523;DHT22;61478;50.820;4.330;2023-04-15T13:27:39;20.20;55.40
35523;DHT22;61478;50.820;4.330;2023-04-15T13:30:05;20.10;55.90
35523;DHT22;61478;50.820;4.330;2023-04-15T13:32:32;20.10;57.70
35523;DHT22;61478;50.820;4.330;2023-04-15T13:34:57;20.10;59.30
35523;DHT22;61478;50.820;4.330;2023-04-15T13:37:28;20.20;59.90
35523;DHT22;61478;50.820;4.330;2023-04-15T13:39:54;20.20;60.40
35523;DHT22;61478;50.820;4.330;2023-04-15T13:42:23;20.20;60.00
35523;DHT22;61478;50.820;4.330;2023-04-15T13:44:50;20.30;60.50
35523;DHT22;61478;50.820;4.330;2023-04-15T13:47:20;20.00;59.80
35523;DHT22;61478;50.820;4.330;2023-04-15T13:49:46;20.10;60.00
35523;DHT22;61478;50.820;4.330;2023-04-15T13:52:12;20.10;58.90
35523;DHT22;61478;50.820;4.330;2023-04-15T13:54:38;20.10;57.80
35523;DHT22;61478;50.820;4.330;2023-04-15T13:57:05;20.20;58.10
35523;DHT22;61478;50.820;4.330;2023-04-15T13:59:32;20.20;58.50
35523;DHT22;61478;50.820;4.330;2023-04-15T14:01:59;20.30;58.60
35523;DHT22;61478;50.820;4.330;2023-04-15T14:04:25;20.20;57.40
35523;DHT22;61478;50.820;4.330;2023-04-15T14:06:51;20.30;58.30
35523;DHT22;61478;50.820;4.330;2023-04-15T14:09:17;20.20;59.10
35523;DHT22;61478;50.820;4.330;2023-04-15T14:11:43;20.20;59.10
35523;DHT22;61478;50.820;4.330;2023-04-15T14:14:09;20.30;60.00
35523;DHT22;61478;50.820;4.330;2023-04-15T14:16:35;20.30;60.30
35523;DHT22;61478;50.820;4.330;2023-04-15T14:19:01;20.20;59.40
35523;DHT22;61478;50.820;4.330;2023-04-15T14:21:27;20.30;59.80
35523;DHT22;61478;50.820;4.330;2023-04-15T14:23:53;20.40;61.70
35523;DHT22;61478;50.820;4.330;2023-04-15T14:26:19;20.40;60.30
35523;DHT22;61478;50.820;4.330;2023-04-15T14:28:45;20.40;60.20
35523;DHT22;61478;50.820;4.330;2023-04-15T14:31:12;20.00;60.20
35523;DHT22;61478;50.820;4.330;2023-04-15T14:33:38;19.90;60.60
35523;DHT22;61478;50.820;4.330;2023-04-15T14:36:05;19.90;62.20
35523;DHT22;61478;50.820;4.330;2023-04-15T14:38:32;19.70;62.10
35523;DHT22;61478;50.820;4.330;2023-04-15T14:41:03;19.60;62.60
35523;DHT22;61478;50.820;4.330;2023-04-15T14:43:29;19.50;61.30
35523;DHT22;61478;50.820;4.330;2023-04-15T14:45:55;19.50;60.90
35523;DHT22;61478;50.820;4.330;2023-04-15T14:48:20;19.40;59.30
35523;DHT22;61478;50.820;4.330;2023-04-15T14:50:46;19.40;60.90
35523;DHT22;61478;50.820;4.330;2023-04-15T14:53:12;19.50;63.00
35523;DHT22;61478;50.820;4.330;2023-04-15T14:55:38;19.60;61.70
35523;DHT22;61478;50.820;4.330;2023-04-15T14:58:05;19.60;61.50
35523;DHT22;61478;50.820;4.330;2023-04-15T15:00:32;19.50;60.60
35523;DHT22;61478;50.820;4.330;2023-04-15T15:02:58;19.30;61.60
35523;DHT22;61478;50.820;4.330;2023-04-15T15:05:24;19.20;63.70
35523;DHT22;61478;50.820;4.330;2023-04-15T15:07:50;19.30;66.50
35523;DHT22;61478;50.820;4.330;2023-04-15T15:10:16;19.50;67.00
35523;DHT22;61478;50.820;4.330;2023-04-15T15:12:41;19.70;66.60
35523;DHT22;61478;50.820;4.330;2023-04-15T15:15:07;19.50;67.90
35523;DHT22;61478;50.820;4.330;2023-04-15T15:17:34;19.70;67.80
35523;DHT22;61478;50.820;4.330;2023-04-15T15:20:00;19.50;67.60
35523;DHT22;61478;50.820;4.330;2023-04-15T15:22:27;19.50;70.50
35523;DHT22;61478;50.820;4.330;2023-04-15T15:24:53;19.40;72.80
35523;DHT22;61478;50.820;4.330;2023-04-15T15:27:19;19.30;70.20
35523;DHT22;61478;50.820;4.330;2023-04-15T15:29:45;19.20;70.40
35523;DHT22;61478;50.820;4.330;2023-04-15T15:32:11;19.20;74.60
35523;DHT22;61478;50.820;4.330;2023-04-15T15:34:37;19.20;77.90
35523;DHT22;61478;50.820;4.330;2023-04-15T15:37:03;19.30;82.50